sensor_id;sensor_type;location;lat;lon;timestamp;P1;durP1;ratioP1;P2;durP2;ratioP2
3547;SDS011;1788;49.400;11.092;2022-12-16T00:03:31;26.63;;;13.60;;
3547;SDS011;1788;49.400;11.092;2022-12-16T00:05:57;30.10;;;14.33;;
3547;SDS011;1788;49.400;11.092;2022-12-16T00:08:25;31.33;;;14.53;;
3547;SDS011;1788;49.400;11.092;2022-12-16T00:10:55;31.07;;;14.80;;
3547;SDS011;1788;49.400;11.092;2022-12-16T00:13:18;26.80;;;14.40;;
3547;SDS011;1788;49.400;11.092;2022-12-16T00:15:45;31.77;;;14.83;;
3547;SDS011;1788;49.400;11.092;2022-12-16T00:18:11;32.70;;;14.97;;
3547;SDS011;1788;49.400;11.092;2022-12-16T00:20:42;26.67;;;14.10;;
3547;SDS011;1788;49.400;11.092;2022-12-16T00:23:04;32.40;;;14.87;;
3547;SDS011;1788;49.400;11.092;2022-12-16T00:25:31;30.13;;;14.90;;
3547;SDS011;1788;49.400;11.092;2022-12-16T00:27:58;28.13;;;13.93;;
3547;SDS011;1788;49.400;11.092;2022-12-16T00:30:25;25.67;;;13.87;;
3547;SDS011;1788;49.400;11.092;2022-12-16T00:32:52;28.33;;;13.83;;
3547;SDS011;1788;49.400;11.092;2022-12-16T00:35:19;29.47;;;13.90;;
3547;SDS011;1788;49.400;11.092;2022-12-16T00:37:46;25.67;;;13.07;;
3547;SDS011;1788;49.400;11.092;2022-12-16T00:40:13;29.13;;;15.43;;
3547;SDS011;1788;49.400;11.092;2022-12-16T00:42:40;27.67;;;13.93;;
3547;SDS011;1788;49.400;11.092;2022-12-16T00:45:06;28.93;;;15.13;;
3547;SDS011;1788;49.400;11.092;2022-12-16T00:47:33;26.60;;;13.60;;
3547;SDS011;1788;49.400;11.092;2022-12-16T00:49:59;26.33;;;12.93;;
3547;SDS011;1788;49.400;11.092;2022-12-16T00:52:27;28.67;;;14.10;;
3547;SDS011;1788;49.400;11.092;2022-12-16T00:54:53;28.07;;;13.83;;
3547;SDS011;1788;49.400;11.092;2022-12-16T00:57:21;28.13;;;13.80;;
3547;SDS011;1788;49.400;11.092;2022-12-16T00:59:47;25.73;;;14.20;;
3547;SDS011;1788;49.400;11.092;2022-12-16T01:02:15;29.23;;;14.10;;
3547;SDS011;1788;49.400;11.092;2022-12-16T01:04:42;27.93;;;14.37;;
3547;SDS011;1788;49.400;11.092;2022-12-16T01:07:09;34.80;;;14.63;;
3547;SDS011;1788;49.400;11.092;2022-12-16T01:09:36;26.90;;;14.10;;
3547;SDS011;1788;49.400;11.092;2022-12-16T01:12:03;25.33;;;14.90;;
3547;SDS011;1788;49.400;11.092;2022-12-16T01:14:29;27.63;;;13.77;;
3547;SDS011;1788;49.400;11.092;2022-12-16T01:16:56;26.10;;;14.17;;
3547;SDS011;1788;49.400;11.092;2022-12-16T01:19:22;33.33;;;14.60;;
3547;SDS011;1788;49.400;11.092;2022-12-16T01:21:49;25.87;;;14.27;;
3547;SDS011;1788;49.400;11.092;2022-12-16T01:24:16;30.77;;;14.73;;
3547;SDS011;1788;49.400;11.092;2022-12-16T01:26:42;30.07;;;14.13;;
3547;SDS011;1788;49.400;11.092;2022-12-16T01:29:09;27.87;;;13.73;;
3547;SDS011;1788;49.400;11.092;2022-12-16T01:31:35;30.77;;;13.90;;
3547;SDS011;1788;49.400;11.092;2022-12-16T01:34:02;28.07;;;15.70;;
3547;SDS011;1788;49.400;11.092;2022-12-16T01:36:29;29.10;;;13.80;;
3547;SDS011;1788;49.400;11.092;2022-12-16T01:38:55;27.43;;;14.00;;
3547;SDS011;1788;49.400;11.092;2022-12-16T01:41:22;32.23;;;14.27;;
3547;SDS011;1788;49.400;11.092;2022-12-16T01:43:49;28.23;;;13.60;;
3547;SDS011;1788;49.400;11.092;2022-12-16T01:46:17;29.27;;;14.67;;
3547;SDS011;1788;49.400;11.092;2022-12-16T01:53:35;31.47;;;13.87;;
3547;SDS011;1788;49.400;11.092;2022-12-16T01:56:02;29.47;;;15.47;;
3547;SDS011;1788;49.400;11.092;2022-12-16T01:58:31;35.03;;;14.83;;
3547;SDS011;1788;49.400;11.092;2022-12-16T02:00:55;25.73;;;13.33;;
3547;SDS011;1788;49.400;11.092;2022-12-16T02:03:22;31.37;;;13.57;;
3547;SDS011;1788;49.400;11.092;2022-12-16T02:05:49;33.23;;;15.83;;
3547;SDS011;1788;49.400;11.092;2022-12-16T02:08:16;30.93;;;14.93;;
3547;SDS011;1788;49.400;11.092;2022-12-16T02:10:55;30.73;;;15.53;;
3547;SDS011;1788;49.400;11.092;2022-12-16T02:27:57;30.93;;;16.90;;
3547;SDS011;1788;49.400;11.092;2022-12-16T02:40:11;27.67;;;14.00;;
3547;SDS011;1788;49.400;11.092;2022-12-16T02:42:37;31.10;;;16.23;;
3547;SDS011;1788;49.400;11.092;2022-12-16T02:45:03;34.17;;;15.87;;
3547;SDS011;1788;49.400;11.092;2022-12-16T02:47:29;29.17;;;13.97;;
3547;SDS011;1788;49.400;11.092;2022-12-16T02:49:56;34.57;;;15.47;;
3547;SDS011;1788;49.400;11.092;2022-12-16T02:52:24;30.93;;;14.60;;
3547;SDS011;1788;49.400;11.092;2022-12-16T02:54:51;35.27;;;16.43;;
3547;SDS011;1788;49.400;11.092;2022-12-16T02:57:21;34.27;;;15.40;;
3547;SDS011;1788;49.400;11.092;2022-12-16T03:02:11;28.60;;;14.03;;
3547;SDS011;1788;49.400;11.092;2022-12-16T03:04:45;31.27;;;15.70;;
3547;SDS011;1788;49.400;11.092;2022-12-16T03:07:03;31.27;;;14.47;;
3547;SDS011;1788;49.400;11.092;2022-12-16T03:09:31;34.03;;;15.13;;
3547;SDS011;1788;49.400;11.092;2022-12-16T03:11:57;28.13;;;14.27;;
3547;SDS011;1788;49.400;11.092;2022-12-16T03:14:24;32.27;;;14.20;;
3547;SDS011;1788;49.400;11.092;2022-12-16T03:16:51;23.80;;;13.00;;
3547;SDS011;1788;49.400;11.092;2022-12-16T03:19:17;25.40;;;15.30;;
3547;SDS011;1788;49.400;11.092;2022-12-16T03:21:46;32.03;;;13.60;;
3547;SDS011;1788;49.400;11.092;2022-12-16T03:24:10;31.07;;;12.93;;
3547;SDS011;1788;49.400;11.092;2022-12-16T03:29:06;26.53;;;13.63;;
3547;SDS011;1788;49.400;11.092;2022-12-16T03:33:59;37.10;;;15.60;;
3547;SDS011;1788;49.400;11.092;2022-12-16T03:36:24;34.77;;;15.37;;
3547;SDS011;1788;49.400;11.092;2022-12-16T03:38:51;23.60;;;13.30;;
3547;SDS011;1788;49.400;11.092;2022-12-16T03:41:18;29.70;;;13.50;;
3547;SDS011;1788;49.400;11.092;2022-12-16T03:43:44;24.13;;;12.73;;
3547;SDS011;1788;49.400;11.092;2022-12-16T03:46:12;25.83;;;13.13;;
3547;SDS011;1788;49.400;11.092;2022-12-16T03:48:44;31.97;;;14.77;;
3547;SDS011;1788;49.400;11.092;2022-12-16T03:51:06;30.17;;;14.87;;
3547;SDS011;1788;49.400;11.092;2022-12-16T03:53:32;31.90;;;16.57;;
3547;SDS011;1788;49.400;11.092;2022-12-16T03:55:59;39.30;;;17.37;;
3547;SDS011;1788;49.400;11.092;2022-12-16T03:58:25;30.93;;;16.20;;
3547;SDS011;1788;49.400;11.092;2022-12-16T04:00:52;33.13;;;15.37;;
3547;SDS011;1788;49.400;11.092;2022-12-16T04:03:19;31.53;;;14.43;;
3547;SDS011;1788;49.400;11.092;2022-12-16T04:05:45;30.87;;;15.40;;
3547;SDS011;1788;49.400;11.092;2022-12-16T04:08:12;27.83;;;14.20;;
3547;SDS011;1788;49.400;11.092;2022-12-16T04:10:38;29.67;;;15.40;;
3547;SDS011;1788;49.400;11.092;2022-12-16T04:13:07;27.83;;;15.17;;
3547;SDS011;1788;49.400;11.092;2022-12-16T04:15:32;32.13;;;15.57;;
3547;SDS011;1788;49.400;11.092;2022-12-16T04:17:59;34.00;;;16.97;;
3547;SDS011;1788;49.400;11.092;2022-12-16T04:22:52;35.37;;;16.67;;
3547;SDS011;1788;49.400;11.092;2022-12-16T04:27:46;35.47;;;16.57;;
3547;SDS011;1788;49.400;11.092;2022-12-16T04:30:13;31.87;;;15.50;;
3547;SDS011;1788;49.400;11.092;2022-12-16T04:32:39;31.70;;;14.87;;
3547;SDS011;1788;49.400;11.092;2022-12-16T04:35:06;26.60;;;15.13;;
3547;SDS011;1788;49.400;11.092;2022-12-16T04:37:32;37.40;;;16.77;;
3547;SDS011;1788;49.400;11.092;2022-12-16T04:39:59;34.13;;;16.80;;
3547;SDS011;1788;49.400;11.092;2022-12-16T04:42:26;34.47;;;16.37;;
3547;SDS011;1788;49.400;11.092;2022-12-16T04:44:53;26.07;;;15.67;;
3547;SDS011;1788;49.400;11.092;2022-12-16T04:47:19;27.53;;;14.93;;
3547;SDS011;1788;49.400;11.092;2022-12-16T04:49:47;28.70;;;14.30;;
3547;SDS011;1788;49.400;11.092;2022-12-16T04:52:13;30.37;;;14.73;;
3547;SDS011;1788;49.400;11.092;2022-12-16T04:54:40;26.07;;;14.30;;
3547;SDS011;1788;49.400;11.092;2022-12-16T04:57:07;27.70;;;14.27;;
3547;SDS011;1788;49.400;11.092;2022-12-16T04:59:33;28.13;;;14.57;;
3547;SDS011;1788;49.400;11.092;2022-12-16T05:02:00;26.50;;;13.43;;
3547;SDS011;1788;49.400;11.092;2022-12-16T05:04:27;26.03;;;14.53;;
3547;SDS011;1788;49.400;11.092;2022-12-16T05:06:53;28.30;;;13.97;;
3547;SDS011;1788;49.400;11.092;2022-12-16T05:09:21;29.03;;;14.07;;
3547;SDS011;1788;49.400;11.092;2022-12-16T05:11:47;28.93;;;14.00;;
3547;SDS011;1788;49.400;11.092;2022-12-16T05:14:14;33.03;;;14.50;;
3547;SDS011;1788;49.400;11.092;2022-12-16T05:16:41;31.70;;;14.03;;
3547;SDS011;1788;49.400;11.092;2022-12-16T05:19:08;32.60;;;15.40;;
3547;SDS011;1788;49.400;11.092;2022-12-16T05:21:34;28.63;;;15.00;;
3547;SDS011;1788;49.400;11.092;2022-12-16T05:24:01;25.33;;;14.10;;
3547;SDS011;1788;49.400;11.092;2022-12-16T05:26:28;28.77;;;15.00;;
3547;SDS011;1788;49.400;11.092;2022-12-16T05:28:55;25.20;;;12.87;;
3547;SDS011;1788;49.400;11.092;2022-12-16T05:33:49;33.80;;;17.03;;
3547;SDS011;1788;49.400;11.092;2022-12-16T05:36:16;31.57;;;16.23;;
3547;SDS011;1788;49.400;11.092;2022-12-16T05:38:42;30.57;;;16.37;;
3547;SDS011;1788;49.400;11.092;2022-12-16T05:41:09;30.90;;;14.20;;
3547;SDS011;1788;49.400;11.092;2022-12-16T05:43:35;25.47;;;14.10;;
3547;SDS011;1788;49.400;11.092;2022-12-16T05:46:02;29.00;;;14.37;;
3547;SDS011;1788;49.400;11.092;2022-12-16T05:48:29;30.17;;;16.27;;
3547;SDS011;1788;49.400;11.092;2022-12-16T05:50:55;29.80;;;14.03;;
3547;SDS011;1788;49.400;11.092;2022-12-16T05:53:22;25.60;;;14.00;;
3547;SDS011;1788;49.400;11.092;2022-12-16T05:55:49;29.00;;;14.50;;
3547;SDS011;1788;49.400;11.092;2022-12-16T05:58:16;36.27;;;17.13;;
3547;SDS011;1788;49.400;11.092;2022-12-16T06:00:43;34.73;;;16.50;;
3547;SDS011;1788;49.400;11.092;2022-12-16T06:03:10;29.07;;;15.40;;
3547;SDS011;1788;49.400;11.092;2022-12-16T06:05:37;26.30;;;16.20;;
3547;SDS011;1788;49.400;11.092;2022-12-16T06:08:04;30.13;;;15.07;;
3547;SDS011;1788;49.400;11.092;2022-12-16T06:10:31;25.80;;;13.17;;
3547;SDS011;1788;49.400;11.092;2022-12-16T06:12:57;24.43;;;14.70;;
3547;SDS011;1788;49.400;11.092;2022-12-16T06:15:24;25.57;;;13.90;;
3547;SDS011;1788;49.400;11.092;2022-12-16T06:17:50;21.43;;;12.20;;
3547;SDS011;1788;49.400;11.092;2022-12-16T06:20:17;22.13;;;12.30;;
3547;SDS011;1788;49.400;11.092;2022-12-16T06:22:49;20.37;;;11.83;;
3547;SDS011;1788;49.400;11.092;2022-12-16T06:25:10;24.43;;;12.87;;
3547;SDS011;1788;49.400;11.092;2022-12-16T06:27:37;28.80;;;12.97;;
3547;SDS011;1788;49.400;11.092;2022-12-16T06:30:04;27.03;;;14.27;;
3547;SDS011;1788;49.400;11.092;2022-12-16T06:32:30;25.77;;;11.87;;
3547;SDS011;1788;49.400;11.092;2022-12-16T06:34:57;25.20;;;13.53;;
3547;SDS011;1788;49.400;11.092;2022-12-16T06:37:23;23.60;;;14.00;;
3547;SDS011;1788;49.400;11.092;2022-12-16T06:39:51;26.63;;;12.40;;
3547;SDS011;1788;49.400;11.092;2022-12-16T06:42:17;24.23;;;13.37;;
3547;SDS011;1788;49.400;11.092;2022-12-16T06:44:44;27.87;;;13.73;;
3547;SDS011;1788;49.400;11.092;2022-12-16T06:47:11;25.63;;;14.03;;
3547;SDS011;1788;49.400;11.092;2022-12-16T06:49:37;23.73;;;13.77;;
3547;SDS011;1788;49.400;11.092;2022-12-16T06:52:04;24.37;;;13.37;;
3547;SDS011;1788;49.400;11.092;2022-12-16T06:54:30;22.00;;;11.50;;
3547;SDS011;1788;49.400;11.092;2022-12-16T06:56:58;20.37;;;11.00;;
3547;SDS011;1788;49.400;11.092;2022-12-16T06:59:24;18.00;;;10.97;;
3547;SDS011;1788;49.400;11.092;2022-12-16T07:01:51;22.87;;;12.20;;
3547;SDS011;1788;49.400;11.092;2022-12-16T07:04:17;19.07;;;12.13;;
3547;SDS011;1788;49.400;11.092;2022-12-16T07:06:44;20.57;;;10.47;;
3547;SDS011;1788;49.400;11.092;2022-12-16T07:09:11;22.90;;;11.10;;
3547;SDS011;1788;49.400;11.092;2022-12-16T07:11:38;23.97;;;11.97;;
3547;SDS011;1788;49.400;11.092;2022-12-16T07:14:05;21.83;;;11.60;;
3547;SDS011;1788;49.400;11.092;2022-12-16T07:16:32;13.07;;;9.00;;
3547;SDS011;1788;49.400;11.092;2022-12-16T07:18:58;22.67;;;14.43;;
3547;SDS011;1788;49.400;11.092;2022-12-16T07:21:25;24.33;;;12.03;;
3547;SDS011;1788;49.400;11.092;2022-12-16T07:23:52;19.80;;;11.97;;
3547;SDS011;1788;49.400;11.092;2022-12-16T07:26:18;23.10;;;13.70;;
3547;SDS011;1788;49.400;11.092;2022-12-16T07:28:45;24.17;;;12.60;;
3547;SDS011;1788;49.400;11.092;2022-12-16T07:31:11;23.70;;;12.47;;
3547;SDS011;1788;49.400;11.092;2022-12-16T07:33:39;24.97;;;12.77;;
3547;SDS011;1788;49.400;11.092;2022-12-16T07:36:06;18.87;;;11.37;;
3547;SDS011;1788;49.400;11.092;2022-12-16T07:38:32;23.60;;;11.63;;
3547;SDS011;1788;49.400;11.092;2022-12-16T07:40:59;23.03;;;11.60;;
3547;SDS011;1788;49.400;11.092;2022-12-16T07:43:26;22.30;;;12.50;;
3547;SDS011;1788;49.400;11.092;2022-12-16T07:45:53;21.30;;;11.10;;
3547;SDS011;1788;49.400;11.092;2022-12-16T07:48:20;18.07;;;10.43;;
3547;SDS011;1788;49.400;11.092;2022-12-16T07:50:47;18.67;;;10.53;;
3547;SDS011;1788;49.400;11.092;2022-12-16T07:53:13;19.30;;;10.90;;
3547;SDS011;1788;49.400;11.092;2022-12-16T07:55:40;19.23;;;11.00;;
3547;SDS011;1788;49.400;11.092;2022-12-16T07:58:07;16.23;;;9.77;;
3547;SDS011;1788;49.400;11.092;2022-12-16T08:00:34;24.00;;;12.57;;
3547;SDS011;1788;49.400;11.092;2022-12-16T08:03:00;22.07;;;11.30;;
3547;SDS011;1788;49.400;11.092;2022-12-16T08:05:27;14.77;;;10.20;;
3547;SDS011;1788;49.400;11.092;2022-12-16T08:07:54;20.70;;;12.57;;
3547;SDS011;1788;49.400;11.092;2022-12-16T08:10:20;19.23;;;13.40;;
3547;SDS011;1788;49.400;11.092;2022-12-16T08:12:47;18.77;;;12.20;;
3547;SDS011;1788;49.400;11.092;2022-12-16T08:15:14;16.67;;;9.77;;
3547;SDS011;1788;49.400;11.092;2022-12-16T08:20:07;18.60;;;10.77;;
3547;SDS011;1788;49.400;11.092;2022-12-16T08:22:34;24.10;;;11.87;;
3547;SDS011;1788;49.400;11.092;2022-12-16T08:25:01;17.83;;;11.30;;
3547;SDS011;1788;49.400;11.092;2022-12-16T08:27:28;22.17;;;11.80;;
3547;SDS011;1788;49.400;11.092;2022-12-16T08:29:55;21.87;;;11.70;;
3547;SDS011;1788;49.400;11.092;2022-12-16T08:32:22;24.13;;;12.50;;
3547;SDS011;1788;49.400;11.092;2022-12-16T08:34:49;19.53;;;12.23;;
3547;SDS011;1788;49.400;11.092;2022-12-16T08:37:16;16.97;;;11.33;;
3547;SDS011;1788;49.400;11.092;2022-12-16T08:39:43;21.53;;;10.67;;
3547;SDS011;1788;49.400;11.092;2022-12-16T08:42:09;16.77;;;10.97;;
3547;SDS011;1788;49.400;11.092;2022-12-16T08:44:36;16.23;;;9.73;;
3547;SDS011;1788;49.400;11.092;2022-12-16T08:47:03;19.73;;;11.30;;
3547;SDS011;1788;49.400;11.092;2022-12-16T08:49:30;21.33;;;11.63;;
3547;SDS011;1788;49.400;11.092;2022-12-16T08:51:57;18.87;;;11.33;;
3547;SDS011;1788;49.400;11.092;2022-12-16T08:54:24;19.40;;;11.50;;
3547;SDS011;1788;49.400;11.092;2022-12-16T08:56:50;22.67;;;11.00;;
3547;SDS011;1788;49.400;11.092;2022-12-16T08:59:17;25.57;;;12.43;;
3547;SDS011;1788;49.400;11.092;2022-12-16T09:01:45;15.87;;;9.27;;
3547;SDS011;1788;49.400;11.092;2022-12-16T09:04:12;16.07;;;10.07;;
3547;SDS011;1788;49.400;11.092;2022-12-16T09:06:39;15.70;;;9.67;;
3547;SDS011;1788;49.400;11.092;2022-12-16T09:09:06;12.80;;;8.73;;
3547;SDS011;1788;49.400;11.092;2022-12-16T09:11:33;15.13;;;9.97;;
3547;SDS011;1788;49.400;11.092;2022-12-16T09:14:05;17.40;;;9.10;;
3547;SDS011;1788;49.400;11.092;2022-12-16T09:16:31;15.27;;;8.73;;
3547;SDS011;1788;49.400;11.092;2022-12-16T09:18:58;16.70;;;9.60;;
3547;SDS011;1788;49.400;11.092;2022-12-16T09:21:24;17.20;;;10.03;;
3547;SDS011;1788;49.400;11.092;2022-12-16T09:23:51;19.70;;;10.80;;
3547;SDS011;1788;49.400;11.092;2022-12-16T09:26:18;20.43;;;13.37;;
3547;SDS011;1788;49.400;11.092;2022-12-16T09:28:44;28.40;;;14.53;;
3547;SDS011;1788;49.400;11.092;2022-12-16T09:31:11;20.97;;;12.33;;
3547;SDS011;1788;49.400;11.092;2022-12-16T09:33:37;15.87;;;10.23;;
3547;SDS011;1788;49.400;11.092;2022-12-16T09:36:04;19.80;;;11.20;;
3547;SDS011;1788;49.400;11.092;2022-12-16T09:38:31;20.73;;;12.90;;
3547;SDS011;1788;49.400;11.092;2022-12-16T09:40:59;22.43;;;11.73;;
3547;SDS011;1788;49.400;11.092;2022-12-16T09:50:44;28.90;;;16.03;;
3547;SDS011;1788;49.400;11.092;2022-12-16T09:53:12;28.23;;;17.63;;
3547;SDS011;1788;49.400;11.092;2022-12-16T09:55:38;23.57;;;15.57;;
3547;SDS011;1788;49.400;11.092;2022-12-16T09:58:04;23.13;;;14.23;;
3547;SDS011;1788;49.400;11.092;2022-12-16T10:00:31;24.43;;;15.33;;
3547;SDS011;1788;49.400;11.092;2022-12-16T10:02:57;20.63;;;13.87;;
3547;SDS011;1788;49.400;11.092;2022-12-16T10:05:29;21.07;;;12.97;;
3547;SDS011;1788;49.400;11.092;2022-12-16T10:07:53;21.73;;;13.37;;
3547;SDS011;1788;49.400;11.092;2022-12-16T10:10:21;24.53;;;13.80;;
3547;SDS011;1788;49.400;11.092;2022-12-16T10:17:38;23.57;;;12.67;;
3547;SDS011;1788;49.400;11.092;2022-12-16T10:27:28;26.50;;;13.70;;
3547;SDS011;1788;49.400;11.092;2022-12-16T10:34:57;20.10;;;11.70;;
3547;SDS011;1788;49.400;11.092;2022-12-16T10:37:29;22.23;;;11.80;;
3547;SDS011;1788;49.400;11.092;2022-12-16T10:39:52;25.97;;;13.13;;
3547;SDS011;1788;49.400;11.092;2022-12-16T10:42:19;20.60;;;11.90;;
3547;SDS011;1788;49.400;11.092;2022-12-16T10:47:10;20.07;;;11.97;;
3547;SDS011;1788;49.400;11.092;2022-12-16T10:49:37;24.33;;;13.60;;
3547;SDS011;1788;49.400;11.092;2022-12-16T10:52:04;21.63;;;12.40;;
3547;SDS011;1788;49.400;11.092;2022-12-16T10:56:59;23.73;;;12.50;;
3547;SDS011;1788;49.400;11.092;2022-12-16T10:59:32;21.17;;;12.33;;
3547;SDS011;1788;49.400;11.092;2022-12-16T11:06:44;24.07;;;13.00;;
3547;SDS011;1788;49.400;11.092;2022-12-16T11:09:13;22.80;;;12.80;;
3547;SDS011;1788;49.400;11.092;2022-12-16T11:11:38;19.30;;;11.70;;
3547;SDS011;1788;49.400;11.092;2022-12-16T11:16:32;21.40;;;12.40;;
3547;SDS011;1788;49.400;11.092;2022-12-16T11:18:58;20.23;;;11.63;;
3547;SDS011;1788;49.400;11.092;2022-12-16T11:21:26;23.77;;;12.77;;
3547;SDS011;1788;49.400;11.092;2022-12-16T11:26:19;24.97;;;12.73;;
3547;SDS011;1788;49.400;11.092;2022-12-16T11:28:49;19.37;;;12.20;;
3547;SDS011;1788;49.400;11.092;2022-12-16T11:31:13;22.83;;;12.77;;
3547;SDS011;1788;49.400;11.092;2022-12-16T11:33:39;24.67;;;12.87;;
3547;SDS011;1788;49.400;11.092;2022-12-16T11:41:02;37.80;;;18.90;;
3547;SDS011;1788;49.400;11.092;2022-12-16T11:43:29;29.07;;;16.00;;
3547;SDS011;1788;49.400;11.092;2022-12-16T11:45:56;30.30;;;16.23;;
3547;SDS011;1788;49.400;11.092;2022-12-16T11:50:51;23.07;;;13.90;;
3547;SDS011;1788;49.400;11.092;2022-12-16T11:55:46;25.90;;;14.40;;
3547;SDS011;1788;49.400;11.092;2022-12-16T12:00:38;24.93;;;12.90;;
3547;SDS011;1788;49.400;11.092;2022-12-16T12:12:55;22.80;;;12.67;;
3547;SDS011;1788;49.400;11.092;2022-12-16T12:15:22;27.33;;;14.20;;
3547;SDS011;1788;49.400;11.092;2022-12-16T12:17:48;22.27;;;12.77;;
3547;SDS011;1788;49.400;11.092;2022-12-16T12:22:39;25.50;;;14.63;;
3547;SDS011;1788;49.400;11.092;2022-12-16T12:25:08;27.40;;;15.00;;
3547;SDS011;1788;49.400;11.092;2022-12-16T12:27:34;28.67;;;15.17;;
3547;SDS011;1788;49.400;11.092;2022-12-16T12:32:34;31.83;;;15.07;;
3547;SDS011;1788;49.400;11.092;2022-12-16T12:39:48;23.17;;;13.97;;
3547;SDS011;1788;49.400;11.092;2022-12-16T12:44:44;22.70;;;13.10;;
3547;SDS011;1788;49.400;11.092;2022-12-16T12:47:07;30.07;;;16.53;;
3547;SDS011;1788;49.400;11.092;2022-12-16T12:56:53;25.30;;;13.73;;
3547;SDS011;1788;49.400;11.092;2022-12-16T13:01:46;32.30;;;16.90;;
3547;SDS011;1788;49.400;11.092;2022-12-16T13:04:15;27.83;;;14.90;;
3547;SDS011;1788;49.400;11.092;2022-12-16T13:06:39;24.80;;;14.57;;
3547;SDS011;1788;49.400;11.092;2022-12-16T13:14:01;28.63;;;15.50;;
3547;SDS011;1788;49.400;11.092;2022-12-16T13:23:49;21.60;;;12.33;;
3547;SDS011;1788;49.400;11.092;2022-12-16T13:28:42;35.07;;;17.27;;
3547;SDS011;1788;49.400;11.092;2022-12-16T13:31:08;30.93;;;16.37;;
3547;SDS011;1788;49.400;11.092;2022-12-16T13:33:36;33.93;;;16.07;;
3547;SDS011;1788;49.400;11.092;2022-12-16T13:36:02;29.70;;;15.37;;
3547;SDS011;1788;49.400;11.092;2022-12-16T13:38:30;25.07;;;16.10;;
3547;SDS011;1788;49.400;11.092;2022-12-16T13:50:45;29.77;;;14.63;;
3547;SDS011;1788;49.400;11.092;2022-12-16T13:53:12;24.53;;;13.23;;
3547;SDS011;1788;49.400;11.092;2022-12-16T13:58:07;26.43;;;14.13;;
3547;SDS011;1788;49.400;11.092;2022-12-16T14:00:32;22.20;;;13.90;;
3547;SDS011;1788;49.400;11.092;2022-12-16T14:02:58;26.43;;;14.37;;
3547;SDS011;1788;49.400;11.092;2022-12-16T14:05:27;29.20;;;15.37;;
3547;SDS011;1788;49.400;11.092;2022-12-16T14:07:51;26.93;;;15.53;;
3547;SDS011;1788;49.400;11.092;2022-12-16T14:12:47;30.60;;;14.67;;
3547;SDS011;1788;49.400;11.092;2022-12-16T14:27:26;31.87;;;17.20;;
3547;SDS011;1788;49.400;11.092;2022-12-16T14:29:52;39.03;;;18.10;;
3547;SDS011;1788;49.400;11.092;2022-12-16T14:32:23;28.70;;;15.77;;
3547;SDS011;1788;49.400;11.092;2022-12-16T14:34:45;30.20;;;16.90;;
3547;SDS011;1788;49.400;11.092;2022-12-16T14:37:13;29.50;;;16.37;;
3547;SDS011;1788;49.400;11.092;2022-12-16T14:39:39;35.33;;;17.43;;
3547;SDS011;1788;49.400;11.092;2022-12-16T14:44:32;32.20;;;16.53;;
3547;SDS011;1788;49.400;11.092;2022-12-16T14:46:58;29.27;;;16.30;;
3547;SDS011;1788;49.400;11.092;2022-12-16T14:49:27;36.23;;;17.40;;
3547;SDS011;1788;49.400;11.092;2022-12-16T14:51:52;28.47;;;17.57;;
3547;SDS011;1788;49.400;11.092;2022-12-16T14:56:46;31.43;;;18.10;;
3547;SDS011;1788;49.400;11.092;2022-12-16T14:59:13;34.47;;;18.63;;
3547;SDS011;1788;49.400;11.092;2022-12-16T15:01:39;32.70;;;17.23;;
3547;SDS011;1788;49.400;11.092;2022-12-16T15:09:00;33.03;;;16.97;;
3547;SDS011;1788;49.400;11.092;2022-12-16T15:11:26;31.63;;;16.50;;
3547;SDS011;1788;49.400;11.092;2022-12-16T15:13:53;31.27;;;17.00;;
3547;SDS011;1788;49.400;11.092;2022-12-16T15:16:22;29.43;;;16.00;;
3547;SDS011;1788;49.400;11.092;2022-12-16T15:18:48;25.97;;;14.87;;
3547;SDS011;1788;49.400;11.092;2022-12-16T15:21:14;30.33;;;16.27;;
3547;SDS011;1788;49.400;11.092;2022-12-16T15:23:42;32.37;;;17.07;;
3547;SDS011;1788;49.400;11.092;2022-12-16T15:26:07;35.13;;;18.53;;
3547;SDS011;1788;49.400;11.092;2022-12-16T15:28:37;33.13;;;16.63;;
3547;SDS011;1788;49.400;11.092;2022-12-16T15:31:01;31.03;;;16.30;;
3547;SDS011;1788;49.400;11.092;2022-12-16T15:33:29;33.90;;;18.03;;
3547;SDS011;1788;49.400;11.092;2022-12-16T15:35:59;36.17;;;17.90;;
3547;SDS011;1788;49.400;11.092;2022-12-16T15:40:49;38.97;;;20.53;;
3547;SDS011;1788;49.400;11.092;2022-12-16T15:45:46;37.30;;;18.70;;
3547;SDS011;1788;49.400;11.092;2022-12-16T15:50:51;31.37;;;16.93;;
3547;SDS011;1788;49.400;11.092;2022-12-16T15:57:55;28.53;;;15.70;;
3547;SDS011;1788;49.400;11.092;2022-12-16T16:02:49;39.50;;;19.20;;
3547;SDS011;1788;49.400;11.092;2022-12-16T16:05:18;37.47;;;19.17;;
3547;SDS011;1788;49.400;11.092;2022-12-16T16:07:43;30.30;;;17.43;;
3547;SDS011;1788;49.400;11.092;2022-12-16T16:12:37;35.87;;;18.60;;
3547;SDS011;1788;49.400;11.092;2022-12-16T16:15:04;38.77;;;19.17;;
3547;SDS011;1788;49.400;11.092;2022-12-16T16:17:31;35.07;;;17.00;;
3547;SDS011;1788;49.400;11.092;2022-12-16T16:19:58;31.67;;;17.40;;
3547;SDS011;1788;49.400;11.092;2022-12-16T16:22:24;32.27;;;18.70;;
3547;SDS011;1788;49.400;11.092;2022-12-16T16:24:51;35.53;;;17.93;;
3547;SDS011;1788;49.400;11.092;2022-12-16T16:27:17;36.30;;;16.53;;
3547;SDS011;1788;49.400;11.092;2022-12-16T16:29:44;31.53;;;15.80;;
3547;SDS011;1788;49.400;11.092;2022-12-16T16:32:11;32.23;;;17.50;;
3547;SDS011;1788;49.400;11.092;2022-12-16T16:34:38;28.93;;;16.03;;
3547;SDS011;1788;49.400;11.092;2022-12-16T16:37:06;32.30;;;16.87;;
3547;SDS011;1788;49.400;11.092;2022-12-16T16:39:31;35.83;;;19.47;;
3547;SDS011;1788;49.400;11.092;2022-12-16T16:41:58;31.50;;;17.70;;
3547;SDS011;1788;49.400;11.092;2022-12-16T16:44:25;38.57;;;18.43;;
3547;SDS011;1788;49.400;11.092;2022-12-16T16:46:52;32.00;;;17.17;;
3547;SDS011;1788;49.400;11.092;2022-12-16T16:51:45;32.83;;;17.70;;
3547;SDS011;1788;49.400;11.092;2022-12-16T16:54:12;30.93;;;18.47;;
3547;SDS011;1788;49.400;11.092;2022-12-16T16:56:39;37.67;;;18.67;;
3547;SDS011;1788;49.400;11.092;2022-12-16T16:59:07;25.30;;;16.37;;
3547;SDS011;1788;49.400;11.092;2022-12-16T17:01:32;36.03;;;17.63;;
3547;SDS011;1788;49.400;11.092;2022-12-16T17:03:59;34.40;;;16.77;;
3547;SDS011;1788;49.400;11.092;2022-12-16T17:06:26;33.67;;;16.63;;
3547;SDS011;1788;49.400;11.092;2022-12-16T17:08:52;29.67;;;16.87;;
3547;SDS011;1788;49.400;11.092;2022-12-16T17:11:20;33.77;;;17.77;;
3547;SDS011;1788;49.400;11.092;2022-12-16T17:13:47;32.03;;;17.43;;
3547;SDS011;1788;49.400;11.092;2022-12-16T17:16:14;30.27;;;16.13;;
3547;SDS011;1788;49.400;11.092;2022-12-16T17:18:41;27.43;;;15.57;;
3547;SDS011;1788;49.400;11.092;2022-12-16T17:21:08;36.53;;;16.83;;
3547;SDS011;1788;49.400;11.092;2022-12-16T17:23:36;31.80;;;17.50;;
3547;SDS011;1788;49.400;11.092;2022-12-16T17:26:03;34.87;;;17.77;;
3547;SDS011;1788;49.400;11.092;2022-12-16T17:28:29;31.10;;;16.63;;
3547;SDS011;1788;49.400;11.092;2022-12-16T17:30:57;26.33;;;15.53;;
3547;SDS011;1788;49.400;11.092;2022-12-16T17:33:23;33.90;;;17.70;;
3547;SDS011;1788;49.400;11.092;2022-12-16T17:35:50;31.67;;;15.73;;
3547;SDS011;1788;49.400;11.092;2022-12-16T17:38:17;28.40;;;15.83;;
3547;SDS011;1788;49.400;11.092;2022-12-16T17:40:49;30.40;;;16.67;;
3547;SDS011;1788;49.400;11.092;2022-12-16T17:43:10;28.13;;;15.67;;
3547;SDS011;1788;49.400;11.092;2022-12-16T17:45:36;33.23;;;17.30;;
3547;SDS011;1788;49.400;11.092;2022-12-16T17:48:03;35.83;;;17.90;;
3547;SDS011;1788;49.400;11.092;2022-12-16T17:50:30;32.27;;;16.73;;
3547;SDS011;1788;49.400;11.092;2022-12-16T17:52:56;29.73;;;16.17;;
3547;SDS011;1788;49.400;11.092;2022-12-16T17:55:23;31.03;;;16.07;;